Greenville, NC

6:47 PM EDT on August 27, 2016 (GMT -0400)
ECU Main Campus | | Change Station

Elev 59 ft 35.61 °N, 77.37 °W | Updated 53 seconds ago

Clear
Clear
88.9 °F
Feels Like 99 °F
N
2.0
Wind Variable Wind from East
Gusts 7.0 mph

Today
High -- | Low -- °F
--% Chance of Precip.
Yesterday
High -- | Low -- °F
Precip. -- in
Pressure 30.07 in
Visibility 7.0 miles
Clouds Clear
Heat Index 99 °F
Dew Point 75 °F
Humidity 63%
Rainfall 0.00 in
Snow Depth Not available.
6:38 AM 7:42 PM
Waning Crescent, 21% visible
METAR KPGV 272250Z AUTO 10008KT 7SM CLR 32/22 A3007 RMK AO2
Pressure 30.07 in
Visibility 7.0 miles
Clouds Clear
Heat Index 99 °F
Dew Point 75 °F
Humidity 63%
Rainfall 0.00 in
Snow Depth Not available.
6:38 AM 7:42 PM
Waning Crescent, 21% visible
METAR KPGV 272250Z AUTO 10008KT 7SM CLR 32/22 A3007 RMK AO2

10-Day Weather Forecast

Almanac

Astronomy

Aug. 27, 2016 Rise Set
Actual Time
Civil Twilight
Nautical Twilight
Astronomical Twilight
Moon
Length of Visible Light
Length of Day
Tomorrow will be .
, % of the Moon is Illuminated

Today's Extremes

State Highs State Lows

Community

WunderPhotos

Upload Photos

1,935,458 photos uploaded!

WunderBlog® & News

Nearby

Air Quality

  Air Quality AQ Index Pollutant
Not available.

Snow Depth

Station Depth Elevation

Earthquake Activity

City Distance Mag. Time & Date
Minimum magnitude displayed is 2.5.

Coastal Water Temperatures

Place Temperature

Stations

Nearby Weather Stations

Station Location Temp. Windchill Dew Point Humidity Wind Precip. Elev Updated Type
                   

Watches & Warnings

There are currently no watches in effect.